sensor_id;sensor_type;location;lat;lon;timestamp;pressure;altitude;pressure_sealevel;temperature;humidity
51081;BME280;37130;55.670;37.596;2023-12-22T00:00:15;97251.63;;;0.30;100.00
51081;BME280;37130;55.670;37.596;2023-12-22T00:02:43;97260.53;;;0.25;100.00
51081;BME280;37130;55.670;37.596;2023-12-22T00:05:10;97251.25;;;0.19;100.00
51081;BME280;37130;55.670;37.596;2023-12-22T00:07:39;97248.91;;;0.13;100.00
51081;BME280;37130;55.670;37.596;2023-12-22T00:10:06;97249.75;;;0.13;100.00
51081;BME280;37130;55.670;37.596;2023-12-22T00:12:34;97243.59;;;0.16;100.00
51081;BME280;37130;55.670;37.596;2023-12-22T00:15:02;97241.72;;;0.18;100.00
51081;BME280;37130;55.670;37.596;2023-12-22T00:17:30;97244.63;;;0.12;100.00
51081;BME280;37130;55.670;37.596;2023-12-22T00:19:57;97243.00;;;0.09;100.00
51081;BME280;37130;55.670;37.596;2023-12-22T00:22:31;97234.41;;;0.07;100.00
51081;BME280;37130;55.670;37.596;2023-12-22T00:24:59;97232.56;;;0.09;100.00
51081;BME280;37130;55.670;37.596;2023-12-22T00:27:27;97231.59;;;0.12;100.00
51081;BME280;37130;55.670;37.596;2023-12-22T00:29:54;97244.66;;;0.10;100.00
51081;BME280;37130;55.670;37.596;2023-12-22T00:32:22;97189.53;;;-0.18;100.00
51081;BME280;37130;55.670;37.596;2023-12-22T00:34:49;97226.03;;;0.01;100.00
51081;BME280;37130;55.670;37.596;2023-12-22T00:37:17;97228.03;;;-0.06;100.00
51081;BME280;37130;55.670;37.596;2023-12-22T00:39:45;97231.69;;;-0.10;100.00
51081;BME280;37130;55.670;37.596;2023-12-22T00:42:12;97131.13;;;-0.71;100.00
51081;BME280;37130;55.670;37.596;2023-12-22T00:44:40;97228.31;;;-0.12;100.00
51081;BME280;37130;55.670;37.596;2023-12-22T00:47:07;97216.97;;;-0.11;100.00
51081;BME280;37130;55.670;37.596;2023-12-22T00:49:35;97223.03;;;-0.11;100.00
51081;BME280;37130;55.670;37.596;2023-12-22T00:52:04;97202.81;;;-0.25;100.00
51081;BME280;37130;55.670;37.596;2023-12-22T00:54:32;97215.31;;;-0.12;100.00
51081;BME280;37130;55.670;37.596;2023-12-22T00:56:59;97218.59;;;-0.09;100.00
51081;BME280;37130;55.670;37.596;2023-12-22T00:59:27;97205.69;;;-0.10;100.00
51081;BME280;37130;55.670;37.596;2023-12-22T01:01:54;97213.84;;;0.01;100.00
51081;BME280;37130;55.670;37.596;2023-12-22T01:04:22;97218.13;;;0.02;100.00
51081;BME280;37130;55.670;37.596;2023-12-22T01:06:50;97213.16;;;-0.03;100.00
51081;BME280;37130;55.670;37.596;2023-12-22T01:09:17;97214.88;;;-0.03;100.00
51081;BME280;37130;55.670;37.596;2023-12-22T01:11:47;97214.34;;;-0.10;100.00
51081;BME280;37130;55.670;37.596;2023-12-22T01:14:15;97218.03;;;-0.15;100.00
51081;BME280;37130;55.670;37.596;2023-12-22T01:16:42;97217.97;;;-0.14;100.00
51081;BME280;37130;55.670;37.596;2023-12-22T01:19:09;97218.69;;;-0.10;100.00
51081;BME280;37130;55.670;37.596;2023-12-22T01:21:37;97220.44;;;-0.11;100.00
51081;BME280;37130;55.670;37.596;2023-12-22T01:24:05;97226.59;;;0.07;100.00
51081;BME280;37130;55.670;37.596;2023-12-22T01:26:32;97214.81;;;0.19;100.00
51081;BME280;37130;55.670;37.596;2023-12-22T01:29:00;97205.78;;;0.26;100.00
51081;BME280;37130;55.670;37.596;2023-12-22T01:31:28;97209.75;;;0.35;100.00
51081;BME280;37130;55.670;37.596;2023-12-22T01:33:55;97206.56;;;0.47;100.00
51081;BME280;37130;55.670;37.596;2023-12-22T01:36:23;97209.75;;;0.54;100.00
51081;BME280;37130;55.670;37.596;2023-12-22T01:38:51;97213.16;;;0.56;100.00
51081;BME280;37130;55.670;37.596;2023-12-22T01:41:18;97214.69;;;0.60;100.00
51081;BME280;37130;55.670;37.596;2023-12-22T01:43:46;97204.16;;;0.63;100.00
51081;BME280;37130;55.670;37.596;2023-12-22T01:46:14;97211.22;;;0.59;100.00
51081;BME280;37130;55.670;37.596;2023-12-22T01:48:42;97132.91;;;0.07;100.00
51081;BME280;37130;55.670;37.596;2023-12-22T01:51:09;97202.00;;;0.52;100.00
51081;BME280;37130;55.670;37.596;2023-12-22T01:53:37;97197.38;;;0.40;100.00
51081;BME280;37130;55.670;37.596;2023-12-22T01:56:06;97141.00;;;0.01;100.00
51081;BME280;37130;55.670;37.596;2023-12-22T01:58:36;97143.63;;;0.01;100.00
51081;BME280;37130;55.670;37.596;2023-12-22T02:01:16;97203.19;;;0.26;100.00
51081;BME280;37130;55.670;37.596;2023-12-22T02:03:44;97199.84;;;0.24;100.00
51081;BME280;37130;55.670;37.596;2023-12-22T02:06:12;97198.13;;;0.23;100.00
51081;BME280;37130;55.670;37.596;2023-12-22T02:08:40;97185.41;;;0.17;100.00
51081;BME280;37130;55.670;37.596;2023-12-22T02:11:09;97192.41;;;0.15;100.00
51081;BME280;37130;55.670;37.596;2023-12-22T02:13:36;97162.66;;;0.02;100.00
51081;BME280;37130;55.670;37.596;2023-12-22T02:16:07;97193.00;;;0.21;100.00
51081;BME280;37130;55.670;37.596;2023-12-22T02:18:43;97178.16;;;0.24;100.00
51081;BME280;37130;55.670;37.596;2023-12-22T02:21:11;97173.56;;;0.29;100.00
51081;BME280;37130;55.670;37.596;2023-12-22T02:23:38;97176.19;;;0.29;100.00
51081;BME280;37130;55.670;37.596;2023-12-22T02:26:34;97140.88;;;0.04;100.00
51081;BME280;37130;55.670;37.596;2023-12-22T02:29:03;97174.34;;;0.31;100.00
51081;BME280;37130;55.670;37.596;2023-12-22T02:31:37;97176.06;;;0.32;100.00
51081;BME280;37130;55.670;37.596;2023-12-22T02:34:10;97168.31;;;0.30;100.00
51081;BME280;37130;55.670;37.596;2023-12-22T02:36:40;97170.91;;;0.30;100.00
51081;BME280;37130;55.670;37.596;2023-12-22T02:39:10;97169.28;;;0.28;100.00
51081;BME280;37130;55.670;37.596;2023-12-22T02:41:38;97174.44;;;0.29;100.00
51081;BME280;37130;55.670;37.596;2023-12-22T02:44:06;97174.16;;;0.35;100.00
51081;BME280;37130;55.670;37.596;2023-12-22T02:46:34;97169.00;;;0.34;100.00
51081;BME280;37130;55.670;37.596;2023-12-22T02:49:01;97165.84;;;0.27;100.00
51081;BME280;37130;55.670;37.596;2023-12-22T02:51:29;97150.38;;;0.24;100.00
51081;BME280;37130;55.670;37.596;2023-12-22T02:53:56;97163.59;;;0.19;100.00
51081;BME280;37130;55.670;37.596;2023-12-22T02:56:24;97118.53;;;0.00;100.00
51081;BME280;37130;55.670;37.596;2023-12-22T02:58:52;97149.75;;;0.19;100.00
51081;BME280;37130;55.670;37.596;2023-12-22T03:01:19;97146.16;;;0.21;100.00
51081;BME280;37130;55.670;37.596;2023-12-22T03:03:47;97148.03;;;0.18;100.00
51081;BME280;37130;55.670;37.596;2023-12-22T03:06:14;97152.41;;;0.17;100.00
51081;BME280;37130;55.670;37.596;2023-12-22T03:08:41;97151.63;;;0.15;100.00
51081;BME280;37130;55.670;37.596;2023-12-22T03:11:09;97089.16;;;-0.23;100.00
51081;BME280;37130;55.670;37.596;2023-12-22T03:13:37;97147.69;;;0.07;100.00
51081;BME280;37130;55.670;37.596;2023-12-22T03:16:08;97139.09;;;0.05;100.00
51081;BME280;37130;55.670;37.596;2023-12-22T03:18:38;97140.09;;;0.02;100.00
51081;BME280;37130;55.670;37.596;2023-12-22T03:21:06;97139.25;;;0.02;100.00
51081;BME280;37130;55.670;37.596;2023-12-22T03:23:34;97147.00;;;0.03;100.00
51081;BME280;37130;55.670;37.596;2023-12-22T03:26:04;97147.53;;;-0.09;100.00
51081;BME280;37130;55.670;37.596;2023-12-22T03:28:32;97151.41;;;-0.18;100.00
51081;BME280;37130;55.670;37.596;2023-12-22T03:31:01;97095.03;;;-0.57;100.00
51081;BME280;37130;55.670;37.596;2023-12-22T03:33:28;97144.75;;;-0.25;100.00
51081;BME280;37130;55.670;37.596;2023-12-22T03:35:56;97072.56;;;-0.78;100.00
51081;BME280;37130;55.670;37.596;2023-12-22T03:38:25;97146.88;;;-0.33;100.00
51081;BME280;37130;55.670;37.596;2023-12-22T03:40:53;97165.75;;;-0.30;100.00
51081;BME280;37130;55.670;37.596;2023-12-22T03:43:20;97109.13;;;-0.62;100.00
51081;BME280;37130;55.670;37.596;2023-12-22T03:45:48;97151.09;;;-0.31;100.00
51081;BME280;37130;55.670;37.596;2023-12-22T03:48:15;97145.09;;;-0.33;100.00
51081;BME280;37130;55.670;37.596;2023-12-22T03:50:43;97150.25;;;-0.31;100.00
51081;BME280;37130;55.670;37.596;2023-12-22T03:53:10;97146.66;;;-0.29;100.00
51081;BME280;37130;55.670;37.596;2023-12-22T03:55:39;97140.41;;;-0.25;100.00
51081;BME280;37130;55.670;37.596;2023-12-22T03:58:06;97138.59;;;-0.23;100.00
51081;BME280;37130;55.670;37.596;2023-12-22T04:00:34;97094.69;;;-0.49;100.00
51081;BME280;37130;55.670;37.596;2023-12-22T04:03:02;97141.19;;;-0.23;100.00
51081;BME280;37130;55.670;37.596;2023-12-22T04:05:30;97135.28;;;-0.26;100.00
51081;BME280;37130;55.670;37.596;2023-12-22T04:07:58;97123.19;;;-0.27;100.00
51081;BME280;37130;55.670;37.596;2023-12-22T04:10:25;97118.81;;;-0.27;100.00
51081;BME280;37130;55.670;37.596;2023-12-22T04:12:53;97118.75;;;-0.25;100.00
51081;BME280;37130;55.670;37.596;2023-12-22T04:15:20;97112.00;;;-0.29;100.00
51081;BME280;37130;55.670;37.596;2023-12-22T04:17:48;97115.63;;;-0.13;100.00
51081;BME280;37130;55.670;37.596;2023-12-22T04:20:17;97113.13;;;-0.16;100.00
51081;BME280;37130;55.670;37.596;2023-12-22T04:22:44;97110.47;;;-0.14;100.00
51081;BME280;37130;55.670;37.596;2023-12-22T04:25:12;97103.78;;;-0.20;100.00
51081;BME280;37130;55.670;37.596;2023-12-22T04:27:42;97106.09;;;-0.14;100.00
51081;BME280;37130;55.670;37.596;2023-12-22T04:30:12;97105.97;;;-0.11;100.00
51081;BME280;37130;55.670;37.596;2023-12-22T04:32:39;97100.00;;;-0.13;100.00
51081;BME280;37130;55.670;37.596;2023-12-22T04:35:07;97095.84;;;-0.17;100.00
51081;BME280;37130;55.670;37.596;2023-12-22T04:37:35;97102.88;;;-0.19;100.00
51081;BME280;37130;55.670;37.596;2023-12-22T04:40:02;96988.78;;;-0.83;100.00
51081;BME280;37130;55.670;37.596;2023-12-22T04:42:32;97085.66;;;-0.22;100.00
51081;BME280;37130;55.670;37.596;2023-12-22T04:44:59;97073.63;;;-0.24;100.00
51081;BME280;37130;55.670;37.596;2023-12-22T04:47:29;97070.47;;;-0.31;100.00
51081;BME280;37130;55.670;37.596;2023-12-22T04:49:57;97085.09;;;-0.28;100.00
51081;BME280;37130;55.670;37.596;2023-12-22T04:52:24;97068.34;;;-0.41;100.00
51081;BME280;37130;55.670;37.596;2023-12-22T04:54:52;97064.88;;;-0.42;100.00
51081;BME280;37130;55.670;37.596;2023-12-22T04:57:20;97075.72;;;-0.32;100.00
51081;BME280;37130;55.670;37.596;2023-12-22T04:59:49;97090.28;;;-0.28;100.00
51081;BME280;37130;55.670;37.596;2023-12-22T05:02:16;97066.41;;;-0.36;100.00
51081;BME280;37130;55.670;37.596;2023-12-22T05:04:44;97076.50;;;-0.30;100.00
51081;BME280;37130;55.670;37.596;2023-12-22T05:07:12;97076.50;;;-0.30;100.00
51081;BME280;37130;55.670;37.596;2023-12-22T05:09:41;97077.69;;;-0.18;100.00
51081;BME280;37130;55.670;37.596;2023-12-22T05:12:09;97078.28;;;-0.12;100.00
51081;BME280;37130;55.670;37.596;2023-12-22T05:14:37;97069.69;;;-0.14;100.00
51081;BME280;37130;55.670;37.596;2023-12-22T05:17:04;97084.31;;;-0.11;100.00
51081;BME280;37130;55.670;37.596;2023-12-22T05:19:32;97079.22;;;-0.13;100.00
51081;BME280;37130;55.670;37.596;2023-12-22T05:21:59;97079.59;;;-0.22;100.00
51081;BME280;37130;55.670;37.596;2023-12-22T05:24:27;97088.19;;;-0.20;100.00
51081;BME280;37130;55.670;37.596;2023-12-22T05:26:55;97077.69;;;-0.18;100.00
51081;BME280;37130;55.670;37.596;2023-12-22T05:29:22;97078.69;;;-0.21;100.00
51081;BME280;37130;55.670;37.596;2023-12-22T05:31:50;97077.84;;;-0.22;100.00
51081;BME280;37130;55.670;37.596;2023-12-22T05:34:18;97081.88;;;-0.14;100.00
51081;BME280;37130;55.670;37.596;2023-12-22T05:36:46;97043.63;;;-0.31;100.00
51081;BME280;37130;55.670;37.596;2023-12-22T05:39:13;97071.31;;;-0.11;100.00
51081;BME280;37130;55.670;37.596;2023-12-22T05:41:41;97068.50;;;-0.26;100.00
51081;BME280;37130;55.670;37.596;2023-12-22T05:44:09;97083.78;;;-0.18;100.00
51081;BME280;37130;55.670;37.596;2023-12-22T05:46:37;97089.03;;;-0.19;100.00
51081;BME280;37130;55.670;37.596;2023-12-22T05:49:06;97094.09;;;-0.16;100.00
51081;BME280;37130;55.670;37.596;2023-12-22T05:51:37;97094.09;;;-0.16;100.00
51081;BME280;37130;55.670;37.596;2023-12-22T05:54:07;97085.31;;;-0.14;100.00
51081;BME280;37130;55.670;37.596;2023-12-22T05:56:35;97054.78;;;-0.29;100.00
51081;BME280;37130;55.670;37.596;2023-12-22T05:59:03;97085.44;;;0.02;100.00
51081;BME280;37130;55.670;37.596;2023-12-22T06:01:31;97079.97;;;0.08;100.00
51081;BME280;37130;55.670;37.596;2023-12-22T06:03:58;97084.94;;;0.13;100.00
51081;BME280;37130;55.670;37.596;2023-12-22T06:06:26;97085.56;;;0.18;100.00
51081;BME280;37130;55.670;37.596;2023-12-22T06:08:55;97086.84;;;0.09;100.00
51081;BME280;37130;55.670;37.596;2023-12-22T06:11:23;97089.47;;;0.09;100.00
51081;BME280;37130;55.670;37.596;2023-12-22T06:13:51;97096.47;;;0.07;100.00
51081;BME280;37130;55.670;37.596;2023-12-22T06:16:18;97078.22;;;0.09;100.00
51081;BME280;37130;55.670;37.596;2023-12-22T06:18:46;97092.84;;;0.11;100.00
51081;BME280;37130;55.670;37.596;2023-12-22T06:21:13;97095.34;;;0.13;100.00
51081;BME280;37130;55.670;37.596;2023-12-22T06:23:42;97102.25;;;0.14;100.00
51081;BME280;37130;55.670;37.596;2023-12-22T06:26:11;97056.78;;;-0.15;100.00
51081;BME280;37130;55.670;37.596;2023-12-22T06:28:39;97097.75;;;0.17;100.00
51081;BME280;37130;55.670;37.596;2023-12-22T06:31:15;97106.53;;;0.15;100.00
51081;BME280;37130;55.670;37.596;2023-12-22T06:33:47;97100.56;;;0.13;100.00
51081;BME280;37130;55.670;37.596;2023-12-22T06:36:22;97105.91;;;0.10;100.00
51081;BME280;37130;55.670;37.596;2023-12-22T06:38:52;97096.91;;;0.17;100.00
51081;BME280;37130;55.670;37.596;2023-12-22T06:41:22;97095.16;;;0.17;100.00
51081;BME280;37130;55.670;37.596;2023-12-22T06:43:55;97105.56;;;0.17;100.00
51081;BME280;37130;55.670;37.596;2023-12-22T06:46:24;97099.56;;;0.15;100.00
51081;BME280;37130;55.670;37.596;2023-12-22T06:48:56;97096.78;;;0.20;100.00
51081;BME280;37130;55.670;37.596;2023-12-22T06:51:26;97092.88;;;0.29;100.00
51081;BME280;37130;55.670;37.596;2023-12-22T06:53:54;97000.53;;;-0.37;100.00
51081;BME280;37130;55.670;37.596;2023-12-22T06:58:51;97105.63;;;0.35;100.00
51081;BME280;37130;55.670;37.596;2023-12-22T07:01:21;97096.63;;;0.42;100.00
51081;BME280;37130;55.670;37.596;2023-12-22T07:03:50;97103.88;;;0.35;100.00
51081;BME280;37130;55.670;37.596;2023-12-22T07:06:19;97099.69;;;0.31;100.00
51081;BME280;37130;55.670;37.596;2023-12-22T07:11:25;97077.09;;;0.14;100.00
51081;BME280;37130;55.670;37.596;2023-12-22T07:14:03;97100.34;;;0.36;100.00
51081;BME280;37130;55.670;37.596;2023-12-22T07:16:32;97107.94;;;0.41;100.00
51081;BME280;37130;55.670;37.596;2023-12-22T07:19:01;97101.06;;;0.40;100.00
51081;BME280;37130;55.670;37.596;2023-12-22T07:21:30;97101.88;;;0.40;100.00
51081;BME280;37130;55.670;37.596;2023-12-22T07:23:58;97111.09;;;0.48;100.00
51081;BME280;37130;55.670;37.596;2023-12-22T07:26:27;97094.50;;;0.50;100.00
51081;BME280;37130;55.670;37.596;2023-12-22T07:28:55;97098.41;;;0.59;100.00
51081;BME280;37130;55.670;37.596;2023-12-22T07:31:23;97100.91;;;0.79;100.00
51081;BME280;37130;55.670;37.596;2023-12-22T07:33:50;97096.56;;;0.97;100.00
51081;BME280;37130;55.670;37.596;2023-12-22T07:36:19;97095.38;;;1.20;100.00
51081;BME280;37130;55.670;37.596;2023-12-22T07:38:49;97094.00;;;1.30;100.00
51081;BME280;37130;55.670;37.596;2023-12-22T07:41:17;97079.28;;;1.12;100.00
51081;BME280;37130;55.670;37.596;2023-12-22T07:43:46;96986.66;;;0.37;100.00
51081;BME280;37130;55.670;37.596;2023-12-22T07:46:20;97080.13;;;1.13;100.00
51081;BME280;37130;55.670;37.596;2023-12-22T07:48:50;97069.56;;;0.98;100.00
51081;BME280;37130;55.670;37.596;2023-12-22T07:51:18;97093.25;;;1.11;100.00
51081;BME280;37130;55.670;37.596;2023-12-22T07:53:46;97087.44;;;1.06;99.60
51081;BME280;37130;55.670;37.596;2023-12-22T07:56:14;97088.50;;;1.02;99.71
51081;BME280;37130;55.670;37.596;2023-12-22T07:58:41;97099.84;;;1.01;99.68
51081;BME280;37130;55.670;37.596;2023-12-22T08:01:09;97044.13;;;0.69;99.39
51081;BME280;37130;55.670;37.596;2023-12-22T08:03:36;97000.44;;;0.56;99.52
51081;BME280;37130;55.670;37.596;2023-12-22T08:06:04;97041.13;;;0.94;98.85
51081;BME280;37130;55.670;37.596;2023-12-22T08:08:34;97078.16;;;1.00;98.31
51081;BME280;37130;55.670;37.596;2023-12-22T08:11:02;97068.72;;;0.98;98.36
51081;BME280;37130;55.670;37.596;2023-12-22T08:13:30;97061.81;;;0.97;97.91
51081;BME280;37130;55.670;37.596;2023-12-22T08:15:57;97066.13;;;0.98;98.42
51081;BME280;37130;55.670;37.596;2023-12-22T08:18:25;96999.97;;;0.83;98.20
51081;BME280;37130;55.670;37.596;2023-12-22T08:20:53;97056.88;;;1.25;97.71
51081;BME280;37130;55.670;37.596;2023-12-22T08:23:21;97042.63;;;1.15;97.31
51081;BME280;37130;55.670;37.596;2023-12-22T08:25:49;97049.00;;;1.09;97.07
51081;BME280;37130;55.670;37.596;2023-12-22T08:28:17;97054.06;;;1.13;97.11
51081;BME280;37130;55.670;37.596;2023-12-22T08:30:44;97043.84;;;1.25;97.12
51081;BME280;37130;55.670;37.596;2023-12-22T08:33:12;96946.53;;;0.58;95.99
51081;BME280;37130;55.670;37.596;2023-12-22T08:35:40;97044.78;;;1.24;95.70
51081;BME280;37130;55.670;37.596;2023-12-22T08:38:08;97051.78;;;1.24;95.85
51081;BME280;37130;55.670;37.596;2023-12-22T08:40:36;97047.22;;;1.27;95.47
51081;BME280;37130;55.670;37.596;2023-12-22T08:43:04;97046.47;;;1.25;94.86
51081;BME280;37130;55.670;37.596;2023-12-22T08:45:33;97041.63;;;1.35;95.25
51081;BME280;37130;55.670;37.596;2023-12-22T08:48:01;97040.06;;;1.48;95.00
51081;BME280;37130;55.670;37.596;2023-12-22T08:50:30;97028.66;;;1.67;94.73
51081;BME280;37130;55.670;37.596;2023-12-22T08:52:57;97033.22;;;1.79;93.62
51081;BME280;37130;55.670;37.596;2023-12-22T08:55:25;97010.56;;;1.80;92.97
51081;BME280;37130;55.670;37.596;2023-12-22T08:57:53;97034.31;;;1.75;92.42
51081;BME280;37130;55.670;37.596;2023-12-22T09:00:28;97038.41;;;1.63;93.07
51081;BME280;37130;55.670;37.596;2023-12-22T09:02:56;97031.84;;;1.56;92.39
51081;BME280;37130;55.670;37.596;2023-12-22T09:05:23;97035.72;;;1.65;92.78
51081;BME280;37130;55.670;37.596;2023-12-22T09:07:51;97026.47;;;1.75;92.66
51081;BME280;37130;55.670;37.596;2023-12-22T09:10:19;97028.84;;;1.95;92.30
51081;BME280;37130;55.670;37.596;2023-12-22T09:12:47;97033.59;;;2.05;92.10
51081;BME280;37130;55.670;37.596;2023-12-22T09:15:15;97034.59;;;1.86;90.88
51081;BME280;37130;55.670;37.596;2023-12-22T09:17:43;97028.78;;;1.81;90.96
51081;BME280;37130;55.670;37.596;2023-12-22T09:20:11;97036.75;;;1.78;91.06
51081;BME280;37130;55.670;37.596;2023-12-22T09:22:39;97017.81;;;1.74;90.14
51081;BME280;37130;55.670;37.596;2023-12-22T09:25:07;97034.91;;;1.80;89.24
51081;BME280;37130;55.670;37.596;2023-12-22T09:27:36;97032.38;;;1.63;88.98
51081;BME280;37130;55.670;37.596;2023-12-22T09:30:04;97031.50;;;1.62;89.65
51081;BME280;37130;55.670;37.596;2023-12-22T09:32:34;97028.59;;;1.68;89.53
51081;BME280;37130;55.670;37.596;2023-12-22T09:35:02;97028.75;;;1.65;89.44
51081;BME280;37130;55.670;37.596;2023-12-22T09:37:31;97017.84;;;1.57;89.22
51081;BME280;37130;55.670;37.596;2023-12-22T09:40:00;97009.63;;;1.65;89.61
51081;BME280;37130;55.670;37.596;2023-12-22T09:42:29;97011.34;;;1.66;89.64
51081;BME280;37130;55.670;37.596;2023-12-22T09:44:59;97012.56;;;1.59;89.00
51081;BME280;37130;55.670;37.596;2023-12-22T09:47:30;97001.59;;;1.36;90.18
51081;BME280;37130;55.670;37.596;2023-12-22T09:49:58;97018.31;;;1.32;90.07
51081;BME280;37130;55.670;37.596;2023-12-22T09:52:29;97013.44;;;1.26;89.41
51081;BME280;37130;55.670;37.596;2023-12-22T09:54:57;97000.66;;;1.04;89.51
51081;BME280;37130;55.670;37.596;2023-12-22T09:57:25;97011.69;;;0.92;89.63
51081;BME280;37130;55.670;37.596;2023-12-22T09:59:55;97006.03;;;0.83;89.89
51081;BME280;37130;55.670;37.596;2023-12-22T10:02:25;97006.66;;;0.71;89.93
51081;BME280;37130;55.670;37.596;2023-12-22T10:04:54;97006.50;;;0.74;90.72
51081;BME280;37130;55.670;37.596;2023-12-22T10:07:22;96941.00;;;0.30;89.95
51081;BME280;37130;55.670;37.596;2023-12-22T10:09:51;96992.94;;;0.68;90.05
51081;BME280;37130;55.670;37.596;2023-12-22T10:12:21;96972.97;;;0.51;90.43
51081;BME280;37130;55.670;37.596;2023-12-22T10:14:49;96991.56;;;0.60;90.48
51081;BME280;37130;55.670;37.596;2023-12-22T10:17:17;96977.56;;;0.63;90.38
51081;BME280;37130;55.670;37.596;2023-12-22T10:19:45;96991.34;;;0.82;90.24
51081;BME280;37130;55.670;37.596;2023-12-22T10:22:12;96985.72;;;0.90;90.70
51081;BME280;37130;55.670;37.596;2023-12-22T10:24:45;96995.47;;;0.86;90.00
51081;BME280;37130;55.670;37.596;2023-12-22T10:27:16;96980.47;;;0.74;89.73
51081;BME280;37130;55.670;37.596;2023-12-22T10:29:53;96986.13;;;0.65;90.06
51081;BME280;37130;55.670;37.596;2023-12-22T10:32:21;96971.13;;;0.53;89.90
51081;BME280;37130;55.670;37.596;2023-12-22T10:34:51;96989.41;;;0.51;89.96
51081;BME280;37130;55.670;37.596;2023-12-22T10:37:21;96942.91;;;0.26;90.68
51081;BME280;37130;55.670;37.596;2023-12-22T10:39:52;96980.16;;;0.46;90.17
51081;BME280;37130;55.670;37.596;2023-12-22T10:42:23;96976.88;;;0.42;90.35
51081;BME280;37130;55.670;37.596;2023-12-22T10:44:51;96978.44;;;0.44;90.33
51081;BME280;37130;55.670;37.596;2023-12-22T10:47:20;96943.78;;;0.27;90.49
51081;BME280;37130;55.670;37.596;2023-12-22T10:49:51;96977.16;;;0.53;90.11
51081;BME280;37130;55.670;37.596;2023-12-22T10:52:19;96959.78;;;0.54;90.41
51081;BME280;37130;55.670;37.596;2023-12-22T10:54:48;96955.19;;;0.59;90.89
51081;BME280;37130;55.670;37.596;2023-12-22T10:57:17;96960.38;;;0.59;90.47
51081;BME280;37130;55.670;37.596;2023-12-22T10:59:47;96959.78;;;0.54;90.64
51081;BME280;37130;55.670;37.596;2023-12-22T11:02:27;96958.00;;;0.54;90.48
51081;BME280;37130;55.670;37.596;2023-12-22T11:05:04;96964.44;;;0.64;90.82
51081;BME280;37130;55.670;37.596;2023-12-22T11:07:36;96967.50;;;0.73;90.77
51081;BME280;37130;55.670;37.596;2023-12-22T11:10:06;96957.53;;;0.81;90.75
51081;BME280;37130;55.670;37.596;2023-12-22T11:12:35;96906.47;;;0.43;89.62
51081;BME280;37130;55.670;37.596;2023-12-22T11:15:05;96953.03;;;0.67;89.75
51081;BME280;37130;55.670;37.596;2023-12-22T11:17:36;96945.38;;;0.64;89.78
51081;BME280;37130;55.670;37.596;2023-12-22T11:20:12;96954.25;;;0.60;89.74
51081;BME280;37130;55.670;37.596;2023-12-22T11:22:42;96955.84;;;0.62;90.26
51081;BME280;37130;55.670;37.596;2023-12-22T11:25:10;96956.19;;;0.56;89.88
51081;BME280;37130;55.670;37.596;2023-12-22T11:27:42;96954.94;;;0.46;89.83
51081;BME280;37130;55.670;37.596;2023-12-22T11:30:12;96899.81;;;0.03;89.67
51081;BME280;37130;55.670;37.596;2023-12-22T11:32:41;96957.16;;;0.36;90.22
51081;BME280;37130;55.670;37.596;2023-12-22T11:35:09;96948.59;;;0.34;90.09
51081;BME280;37130;55.670;37.596;2023-12-22T11:37:39;96926.84;;;0.18;90.57
51081;BME280;37130;55.670;37.596;2023-12-22T11:40:07;96949.13;;;0.41;90.51
51081;BME280;37130;55.670;37.596;2023-12-22T11:42:42;96947.22;;;0.27;90.04
51081;BME280;37130;55.670;37.596;2023-12-22T11:45:14;96940.47;;;0.06;90.20
51081;BME280;37130;55.670;37.596;2023-12-22T11:47:44;96944.69;;;0.08;90.37
51081;BME280;37130;55.670;37.596;2023-12-22T11:50:28;96944.41;;;-0.05;90.10
51081;BME280;37130;55.670;37.596;2023-12-22T11:52:56;96884.59;;;-0.41;90.50
51081;BME280;37130;55.670;37.596;2023-12-22T11:55:59;96942.25;;;-0.14;90.78
51081;BME280;37130;55.670;37.596;2023-12-22T12:01:06;96940.63;;;-0.16;90.39
51081;BME280;37130;55.670;37.596;2023-12-22T12:08:58;96939.84;;;-0.18;90.60
51081;BME280;37130;55.670;37.596;2023-12-22T12:14:28;96935.56;;;-0.19;90.84
51081;BME280;37130;55.670;37.596;2023-12-22T12:17:07;96941.72;;;-0.20;91.70
51081;BME280;37130;55.670;37.596;2023-12-22T12:19:39;96941.47;;;-0.16;91.39
51081;BME280;37130;55.670;37.596;2023-12-22T12:22:07;96944.22;;;-0.19;91.03
51081;BME280;37130;55.670;37.596;2023-12-22T12:24:36;96950.66;;;-0.26;91.22
51081;BME280;37130;55.670;37.596;2023-12-22T12:27:05;96942.75;;;-0.25;91.12
51081;BME280;37130;55.670;37.596;2023-12-22T12:29:33;96938.38;;;-0.24;91.13
51081;BME280;37130;55.670;37.596;2023-12-22T12:32:07;96923.91;;;-0.30;90.82
51081;BME280;37130;55.670;37.596;2023-12-22T12:34:35;96891.91;;;-0.49;91.55
51081;BME280;37130;55.670;37.596;2023-12-22T12:37:04;96908.16;;;-0.44;91.65
51081;BME280;37130;55.670;37.596;2023-12-22T12:39:34;96916.41;;;-0.36;91.51
51081;BME280;37130;55.670;37.596;2023-12-22T12:42:06;96917.25;;;-0.35;91.52
51081;BME280;37130;55.670;37.596;2023-12-22T12:44:35;96912.13;;;-0.37;91.54
51081;BME280;37130;55.670;37.596;2023-12-22T12:47:16;96909.59;;;-0.38;91.62
51081;BME280;37130;55.670;37.596;2023-12-22T12:49:44;96913.63;;;-0.31;91.84
51081;BME280;37130;55.670;37.596;2023-12-22T12:52:15;96906.72;;;-0.32;91.64
51081;BME280;37130;55.670;37.596;2023-12-22T12:54:43;96862.75;;;-0.56;91.84
51081;BME280;37130;55.670;37.596;2023-12-22T12:57:15;96902.66;;;-0.38;91.55
51081;BME280;37130;55.670;37.596;2023-12-22T12:59:47;96894.91;;;-0.39;91.81
51081;BME280;37130;55.670;37.596;2023-12-22T13:02:16;96894.06;;;-0.40;92.11
51081;BME280;37130;55.670;37.596;2023-12-22T13:04:45;96904.88;;;-0.30;92.39
51081;BME280;37130;55.670;37.596;2023-12-22T13:07:12;96889.97;;;-0.27;92.20
51081;BME280;37130;55.670;37.596;2023-12-22T13:09:40;96896.09;;;-0.28;92.34
51081;BME280;37130;55.670;37.596;2023-12-22T13:12:09;96897.56;;;-0.22;92.44
51081;BME280;37130;55.670;37.596;2023-12-22T13:14:37;96892.34;;;-0.22;92.24